createdAt,value
2022-12-14T00:00:00.229Z,1007.03
2022-12-14T00:01:00.686Z,1006.99
2022-12-14T00:02:01.023Z,1007.00
2022-12-14T00:03:01.486Z,1006.98
2022-12-14T00:04:01.914Z,1006.96
2022-12-14T00:05:02.355Z,1006.97
2022-12-14T00:06:02.592Z,1006.95
2022-12-14T00:07:03.077Z,1006.90
2022-12-14T00:08:03.288Z,1006.89
2022-12-14T00:09:03.701Z,1006.90
2022-12-14T00:10:04.047Z,1006.90
2022-12-14T00:11:04.411Z,1006.90
2022-12-14T00:12:04.830Z,1006.90
2022-12-14T00:13:05.178Z,1006.90
2022-12-14T00:14:05.549Z,1006.92
2022-12-14T00:15:05.947Z,1006.88
2022-12-14T00:16:06.398Z,1006.86
2022-12-14T00:17:06.674Z,1006.91
2022-12-14T00:18:07.261Z,1006.89
2022-12-14T00:19:07.548Z,1006.93
2022-12-14T00:20:07.864Z,1006.91
2022-12-14T00:21:08.168Z,1006.91
2022-12-14T00:22:08.533Z,1006.92
2022-12-14T00:23:09.018Z,1006.91
2022-12-14T00:24:09.369Z,1006.91
2022-12-14T00:25:09.662Z,1006.89
2022-12-14T00:26:10.024Z,1006.90
2022-12-14T00:27:10.372Z,1006.89
2022-12-14T00:28:10.716Z,1006.86
2022-12-14T00:29:11.304Z,1006.85
2022-12-14T00:30:11.437Z,1006.86
2022-12-14T00:31:12.063Z,1006.91
2022-12-14T00:32:12.196Z,1006.92
2022-12-14T00:33:12.441Z,1006.87
2022-12-14T00:34:12.863Z,1006.82
2022-12-14T00:35:13.121Z,1006.85
2022-12-14T00:36:13.471Z,1006.83
2022-12-14T00:37:13.830Z,1006.83
2022-12-14T00:38:14.188Z,1006.83
2022-12-14T00:39:14.673Z,1006.82
2022-12-14T00:40:14.926Z,1006.84
2022-12-14T00:41:15.280Z,1006.82
2022-12-14T00:42:15.637Z,1006.80
2022-12-14T00:43:15.995Z,1006.76
2022-12-14T00:44:16.388Z,1006.82
2022-12-14T00:45:16.679Z,1006.78
2022-12-14T00:46:17.163Z,1006.78
2022-12-14T00:47:17.403Z,1006.80
2022-12-14T00:48:17.731Z,1006.78
2022-12-14T00:49:18.191Z,1006.80
2022-12-14T00:50:18.428Z,1006.76
2022-12-14T00:51:18.788Z,1006.81
2022-12-14T00:52:19.153Z,1006.76
2022-12-14T00:53:19.502Z,1006.78
2022-12-14T00:54:19.930Z,1006.76
2022-12-14T00:55:20.209Z,1006.77
2022-12-14T00:56:20.572Z,1006.77
2022-12-14T00:57:20.934Z,1006.75
2022-12-14T00:58:21.288Z,1006.72
2022-12-14T00:59:26.967Z,1006.72
2022-12-14T01:00:22.013Z,1006.70
2022-12-14T01:01:22.611Z,1006.69
2022-12-14T01:02:22.832Z,1006.69
2022-12-14T01:03:23.151Z,1006.65
2022-12-14T01:04:23.644Z,1006.61
2022-12-14T01:05:23.839Z,1006.58
2022-12-14T01:06:24.207Z,1006.62
2022-12-14T01:07:24.560Z,1006.60
2022-12-14T01:08:24.933Z,1006.59
2022-12-14T01:09:25.357Z,1006.61
2022-12-14T01:10:25.668Z,1006.57
2022-12-14T01:11:26.130Z,1006.59
2022-12-14T01:12:26.406Z,1006.59
2022-12-14T01:13:27.190Z,1006.61
2022-12-14T01:14:27.155Z,1006.59
2022-12-14T01:15:27.505Z,1006.59
2022-12-14T01:16:28.032Z,1006.56
2022-12-14T01:17:28.227Z,1006.57
2022-12-14T01:18:28.592Z,1006.55
2022-12-14T01:19:28.974Z,1006.47
2022-12-14T01:20:29.357Z,1006.51
2022-12-14T01:21:29.984Z,1006.53
2022-12-14T01:22:30.115Z,1006.50
2022-12-14T01:23:30.477Z,1006.48
2022-12-14T01:24:30.889Z,1006.48
2022-12-14T01:25:31.251Z,1006.49
2022-12-14T01:26:31.656Z,1006.47
2022-12-14T01:27:31.999Z,1006.42
2022-12-14T01:28:32.370Z,1006.45
2022-12-14T01:29:32.922Z,1006.41
2022-12-14T01:30:33.127Z,1006.42
2022-12-14T01:31:33.546Z,1006.42
2022-12-14T01:32:33.860Z,1006.49
2022-12-14T01:33:34.229Z,1006.48
2022-12-14T01:34:34.681Z,1006.46
2022-12-14T01:35:34.977Z,1006.49
2022-12-14T01:36:35.336Z,1006.47
2022-12-14T01:37:35.694Z,1006.44
2022-12-14T01:38:36.077Z,1006.52
2022-12-14T01:39:36.584Z,1006.47
2022-12-14T01:40:36.832Z,1006.48
2022-12-14T01:41:37.207Z,1006.44
2022-12-14T01:42:37.594Z,1006.46
2022-12-14T01:43:37.981Z,1006.43
2022-12-14T01:44:38.376Z,1006.40
2022-12-14T01:45:38.714Z,1006.35
2022-12-14T01:46:39.161Z,1006.34
2022-12-14T01:47:39.452Z,1006.35
2022-12-14T01:48:39.806Z,1006.35
2022-12-14T01:49:40.190Z,1006.31
2022-12-14T01:50:40.539Z,1006.33
2022-12-14T01:51:40.916Z,1006.30
2022-12-14T01:52:41.247Z,1006.29
2022-12-14T01:53:41.612Z,1006.32
2022-12-14T01:54:42.002Z,1006.30
2022-12-14T01:55:42.332Z,1006.30
2022-12-14T01:56:42.728Z,1006.28
2022-12-14T01:57:43.066Z,1006.27
2022-12-14T01:58:43.431Z,1006.27
2022-12-14T01:59:43.799Z,1006.23
2022-12-14T02:00:44.169Z,1006.23
2022-12-14T02:01:44.703Z,1006.20
2022-12-14T02:02:45.070Z,1006.23
2022-12-14T02:03:45.278Z,1006.21
2022-12-14T02:04:45.627Z,1006.17
2022-12-14T02:05:45.950Z,1006.19
2022-12-14T02:06:46.365Z,1006.18
2022-12-14T02:07:49.040Z,1006.15
2022-12-14T02:08:47.065Z,1006.15
2022-12-14T02:09:47.463Z,1006.17
2022-12-14T02:10:47.810Z,1006.13
2022-12-14T02:11:48.181Z,1006.11
2022-12-14T02:12:48.520Z,1006.14
2022-12-14T02:13:49.032Z,1006.12
2022-12-14T02:14:49.290Z,1006.18
2022-12-14T02:15:49.665Z,1006.16
2022-12-14T02:16:49.964Z,1006.12
2022-12-14T02:17:50.337Z,1006.13
2022-12-14T02:18:50.731Z,1006.11
2022-12-14T02:19:51.066Z,1006.14
2022-12-14T02:20:51.436Z,1006.12
2022-12-14T02:21:51.800Z,1006.11
2022-12-14T02:22:52.170Z,1006.09
2022-12-14T02:23:52.565Z,1006.09
2022-12-14T02:24:52.934Z,1006.09
2022-12-14T02:25:53.290Z,1006.05
2022-12-14T02:26:53.656Z,1006.08
2022-12-14T02:27:54.017Z,1006.11
2022-12-14T02:28:54.406Z,1006.11
2022-12-14T02:29:54.745Z,1006.08
2022-12-14T02:30:55.180Z,1006.06
2022-12-14T02:31:55.462Z,1006.04
2022-12-14T02:32:55.816Z,1006.04
2022-12-14T02:33:56.246Z,1006.02
2022-12-14T02:34:56.559Z,1006.08
2022-12-14T02:35:56.933Z,1006.04
2022-12-14T02:36:57.302Z,1006.05
2022-12-14T02:37:57.671Z,1006.06
2022-12-14T02:38:58.171Z,1006.05
2022-12-14T02:39:58.419Z,1006.00
2022-12-14T02:40:58.766Z,1005.99
2022-12-14T02:41:59.135Z,1005.97
2022-12-14T02:42:59.519Z,1005.95
2022-12-14T02:44:00.046Z,1006.01
2022-12-14T02:45:00.268Z,1005.98
2022-12-14T02:46:00.657Z,1005.98
2022-12-14T02:47:01.095Z,1005.97
2022-12-14T02:48:01.413Z,1005.96
2022-12-14T02:49:01.829Z,1005.92
2022-12-14T02:50:02.227Z,1005.95
2022-12-14T02:51:02.609Z,1005.90
2022-12-14T02:52:02.985Z,1005.89
2022-12-14T02:53:03.360Z,1005.87
2022-12-14T02:54:03.777Z,1005.90
2022-12-14T02:55:04.200Z,1005.87
2022-12-14T02:56:04.535Z,1005.90
2022-12-14T02:57:04.909Z,1005.91
2022-12-14T02:58:05.312Z,1005.88
2022-12-14T02:59:05.690Z,1005.85
2022-12-14T03:00:06.042Z,1005.83
2022-12-14T03:01:06.502Z,1005.84
2022-12-14T03:02:07.056Z,1005.84
2022-12-14T03:03:07.265Z,1005.87
2022-12-14T03:04:07.656Z,1005.85
2022-12-14T03:05:08.024Z,1005.80
2022-12-14T03:06:08.460Z,1005.81
2022-12-14T03:07:08.809Z,1005.80
2022-12-14T03:08:09.201Z,1005.80
2022-12-14T03:09:09.630Z,1005.77
2022-12-14T03:10:10.056Z,1005.79
2022-12-14T03:11:10.361Z,1005.75
2022-12-14T03:12:10.750Z,1005.77
2022-12-14T03:13:11.122Z,1005.73
2022-12-14T03:14:11.508Z,1005.74
2022-12-14T03:15:11.916Z,1005.70
2022-12-14T03:16:12.382Z,1005.68
2022-12-14T03:17:17.592Z,1005.62
2022-12-14T03:18:13.028Z,1005.68
2022-12-14T03:19:13.405Z,1005.61
2022-12-14T03:20:13.771Z,1005.64
2022-12-14T03:21:14.160Z,1005.61
2022-12-14T03:22:14.498Z,1005.60
2022-12-14T03:23:14.872Z,1005.62
2022-12-14T03:24:15.242Z,1005.58
2022-12-14T03:25:15.649Z,1005.56
2022-12-14T03:26:16.113Z,1005.56
2022-12-14T03:27:16.369Z,1005.50
2022-12-14T03:28:16.734Z,1005.49
2022-12-14T03:29:17.101Z,1005.56
2022-12-14T03:30:27.101Z,1005.53
2022-12-14T03:31:17.992Z,1005.50
2022-12-14T03:32:18.270Z,1005.49
2022-12-14T03:33:18.611Z,1005.51
2022-12-14T03:34:19.142Z,1005.51
2022-12-14T03:35:19.339Z,1005.56
2022-12-14T03:36:19.861Z,1005.57
2022-12-14T03:37:20.057Z,1005.51
2022-12-14T03:38:20.419Z,1005.53
2022-12-14T03:39:20.786Z,1005.51
2022-12-14T03:40:21.161Z,1005.52
2022-12-14T03:41:21.875Z,1005.48
2022-12-14T03:42:21.935Z,1005.48
2022-12-14T03:43:22.211Z,1005.50
2022-12-14T03:44:22.570Z,1005.50
2022-12-14T03:45:23.131Z,1005.47
2022-12-14T03:46:23.333Z,1005.47
2022-12-14T03:47:23.700Z,1005.44
2022-12-14T03:48:24.038Z,1005.44
2022-12-14T03:49:24.406Z,1005.42
2022-12-14T03:50:24.773Z,1005.37
2022-12-14T03:51:25.143Z,1005.43
2022-12-14T03:52:25.709Z,1005.39
2022-12-14T03:53:26.428Z,1005.42
2022-12-14T03:54:26.249Z,1005.45
2022-12-14T03:55:26.634Z,1005.43
2022-12-14T03:56:26.981Z,1005.43
2022-12-14T03:57:27.389Z,1005.38
2022-12-14T03:58:27.774Z,1005.37
2022-12-14T03:59:28.114Z,1005.36
2022-12-14T04:00:28.481Z,1005.33
2022-12-14T04:01:28.990Z,1005.32
2022-12-14T04:02:29.435Z,1005.28
2022-12-14T04:03:29.931Z,1005.30
2022-12-14T04:04:29.979Z,1005.26
2022-12-14T04:05:30.354Z,1005.22
2022-12-14T04:06:30.703Z,1005.21
2022-12-14T04:07:31.082Z,1005.18
2022-12-14T04:08:31.484Z,1005.21
2022-12-14T04:09:31.813Z,1005.18
2022-12-14T04:10:32.210Z,1005.17
2022-12-14T04:11:32.553Z,1005.18
2022-12-14T04:12:32.918Z,1005.16
2022-12-14T04:13:33.373Z,1005.16
2022-12-14T04:14:33.641Z,1005.16
2022-12-14T04:15:34.011Z,1005.16
2022-12-14T04:16:34.420Z,1005.14
2022-12-14T04:17:34.728Z,1005.14
2022-12-14T04:18:35.114Z,1005.11
2022-12-14T04:19:35.723Z,1005.12
2022-12-14T04:20:35.811Z,1005.09
2022-12-14T04:21:36.171Z,1005.10
2022-12-14T04:22:36.528Z,1005.07
2022-12-14T04:23:36.912Z,1005.09
2022-12-14T04:24:37.330Z,1005.06
2022-12-14T04:25:37.669Z,1005.04
2022-12-14T04:26:38.019Z,1005.05
2022-12-14T04:27:38.376Z,1005.02
2022-12-14T04:28:38.723Z,1005.02
2022-12-14T04:29:42.737Z,1004.97
2022-12-14T04:30:39.464Z,1004.97
2022-12-14T04:31:39.878Z,1004.99
2022-12-14T04:32:40.245Z,1004.94
2022-12-14T04:33:40.563Z,1004.95
2022-12-14T04:34:40.923Z,1004.97
2022-12-14T04:35:41.523Z,1004.98
2022-12-14T04:36:41.651Z,1004.95
2022-12-14T04:37:42.011Z,1004.96
2022-12-14T04:38:42.377Z,1004.96
2022-12-14T04:39:42.784Z,1004.94
2022-12-14T04:40:43.166Z,1004.93
2022-12-14T04:41:43.870Z,1004.93
2022-12-14T04:42:43.857Z,1004.94
2022-12-14T04:43:44.187Z,1004.87
2022-12-14T04:44:44.537Z,1004.89
2022-12-14T04:45:44.968Z,1004.88
2022-12-14T04:46:45.333Z,1004.85
2022-12-14T04:47:45.668Z,1004.86
2022-12-14T04:48:46.029Z,1004.88
2022-12-14T04:49:46.395Z,1004.90
2022-12-14T04:50:46.775Z,1004.85
2022-12-14T04:51:47.188Z,1004.88
2022-12-14T04:52:47.523Z,1004.87
2022-12-14T04:53:47.865Z,1004.86
2022-12-14T04:54:48.217Z,1004.84
2022-12-14T04:55:48.954Z,1004.85
2022-12-14T04:56:49.195Z,1004.83
2022-12-14T04:57:49.270Z,1004.80
2022-12-14T04:58:49.630Z,1004.83
2022-12-14T04:59:50.002Z,1004.79
2022-12-14T05:00:50.398Z,1004.77
2022-12-14T05:01:51.084Z,1004.72
2022-12-14T05:02:51.157Z,1004.77
2022-12-14T05:03:51.462Z,1004.75
2022-12-14T05:04:51.826Z,1004.75
2022-12-14T05:05:52.190Z,1004.73
2022-12-14T05:06:52.601Z,1004.72
2022-12-14T05:07:52.974Z,1004.73
2022-12-14T05:08:53.320Z,1004.72
2022-12-14T05:09:53.696Z,1004.69
2022-12-14T05:11:04.742Z,1004.65
2022-12-14T05:11:54.886Z,1004.66
2022-12-14T05:12:54.828Z,1004.64
2022-12-14T05:13:55.190Z,1004.66
2022-12-14T05:14:55.557Z,1004.64
2022-12-14T05:15:55.931Z,1004.63
2022-12-14T05:16:56.349Z,1004.57
2022-12-14T05:17:56.708Z,1004.58
2022-12-14T05:18:57.058Z,1004.58
2022-12-14T05:19:57.406Z,1004.59
2022-12-14T05:20:57.795Z,1004.61
2022-12-14T05:21:58.157Z,1004.58
2022-12-14T05:22:58.528Z,1004.65
2022-12-14T05:23:59.002Z,1004.68
2022-12-14T05:24:59.271Z,1004.69
2022-12-14T05:25:59.655Z,1004.67
2022-12-14T05:26:59.999Z,1004.67
2022-12-14T05:28:00.351Z,1004.67
2022-12-14T05:29:00.889Z,1004.73
2022-12-14T05:30:01.085Z,1004.69
2022-12-14T05:31:01.515Z,1004.70
2022-12-14T05:32:01.851Z,1004.70
2022-12-14T05:33:02.162Z,1004.74
2022-12-14T05:34:02.531Z,1004.63
2022-12-14T05:35:02.866Z,1004.71
2022-12-14T05:36:03.256Z,1004.71
2022-12-14T05:37:03.605Z,1004.67
2022-12-14T05:38:03.987Z,1004.65
2022-12-14T05:39:04.372Z,1004.61
2022-12-14T05:40:04.767Z,1004.62
2022-12-14T05:41:05.133Z,1004.62
2022-12-14T05:42:05.486Z,1004.60
2022-12-14T05:43:05.856Z,1004.58
2022-12-14T05:44:06.227Z,1004.57
2022-12-14T05:45:06.759Z,1004.57
2022-12-14T05:46:07.020Z,1004.57
2022-12-14T05:47:07.319Z,1004.55
2022-12-14T05:48:07.686Z,1004.51
2022-12-14T05:49:08.055Z,1004.50
2022-12-14T05:50:08.450Z,1004.50
2022-12-14T05:51:08.773Z,1004.48
2022-12-14T05:52:09.176Z,1004.51
2022-12-14T05:53:09.521Z,1004.53
2022-12-14T05:54:09.904Z,1004.52
2022-12-14T05:55:10.283Z,1004.54
2022-12-14T05:56:10.673Z,1004.52
2022-12-14T05:57:11.038Z,1004.52
2022-12-14T05:58:11.381Z,1004.53
2022-12-14T05:59:11.751Z,1004.49
2022-12-14T06:00:12.127Z,1004.49
2022-12-14T06:01:18.506Z,1004.46
2022-12-14T06:02:13.073Z,1004.44
2022-12-14T06:03:13.250Z,1004.48
2022-12-14T06:04:13.672Z,1004.42
2022-12-14T06:05:13.970Z,1004.44
2022-12-14T06:06:14.334Z,1004.41
2022-12-14T06:07:14.726Z,1004.39
2022-12-14T06:08:15.101Z,1004.39
2022-12-14T06:09:15.441Z,1004.35
2022-12-14T06:10:15.812Z,1004.41
2022-12-14T06:11:16.204Z,1004.37
2022-12-14T06:12:16.589Z,1004.37
2022-12-14T06:13:16.925Z,1004.36
2022-12-14T06:14:17.328Z,1004.33
2022-12-14T06:15:17.631Z,1004.32
2022-12-14T06:16:18.052Z,1004.34
2022-12-14T06:17:18.369Z,1004.32
2022-12-14T06:18:18.771Z,1004.30
2022-12-14T06:19:19.093Z,1004.31
2022-12-14T06:20:19.501Z,1004.30
2022-12-14T06:21:19.822Z,1004.31
2022-12-14T06:22:20.273Z,1004.34
2022-12-14T06:23:20.558Z,1004.33
2022-12-14T06:24:20.931Z,1004.32
2022-12-14T06:25:21.304Z,1004.34
2022-12-14T06:26:21.738Z,1004.30
2022-12-14T06:27:22.173Z,1004.29
2022-12-14T06:28:22.428Z,1004.26
2022-12-14T06:29:22.801Z,1004.23
2022-12-14T06:30:23.169Z,1004.22
2022-12-14T06:31:23.705Z,1004.25
2022-12-14T06:32:24.052Z,1004.23
2022-12-14T06:33:24.467Z,1004.22
2022-12-14T06:34:28.470Z,1004.21
2022-12-14T06:35:25.056Z,1004.23
2022-12-14T06:36:25.430Z,1004.16
2022-12-14T06:37:26.033Z,1004.15
2022-12-14T06:38:26.171Z,1004.15
2022-12-14T06:39:26.566Z,1004.17
2022-12-14T06:40:26.942Z,1004.17
2022-12-14T06:41:27.337Z,1004.13
2022-12-14T06:42:27.701Z,1004.15
2022-12-14T06:43:28.501Z,1004.19
2022-12-14T06:44:28.444Z,1004.18
2022-12-14T06:45:28.783Z,1004.14
2022-12-14T06:46:29.223Z,1004.12
2022-12-14T06:47:29.519Z,1004.10
2022-12-14T06:48:29.997Z,1004.10
2022-12-14T06:49:30.256Z,1004.09
2022-12-14T06:50:30.628Z,1004.08
2022-12-14T06:51:31.024Z,1004.11
2022-12-14T06:52:31.353Z,1004.14
2022-12-14T06:53:31.876Z,1004.11
2022-12-14T06:54:32.101Z,1004.15
2022-12-14T06:55:32.468Z,1004.14
2022-12-14T06:56:32.860Z,1004.18
2022-12-14T06:57:33.203Z,1004.14
2022-12-14T06:58:33.761Z,1004.10
2022-12-14T06:59:33.941Z,1004.12
2022-12-14T07:00:34.314Z,1004.14
2022-12-14T07:01:34.956Z,1004.15
2022-12-14T07:02:35.224Z,1004.15
2022-12-14T07:03:35.882Z,1004.19
2022-12-14T07:04:35.804Z,1004.17
2022-12-14T07:05:36.170Z,1004.14
2022-12-14T07:06:36.563Z,1004.16
2022-12-14T07:07:36.956Z,1004.15
2022-12-14T07:08:37.268Z,1004.13
2022-12-14T07:09:37.661Z,1004.17
2022-12-14T07:10:38.143Z,1004.16
2022-12-14T07:11:38.405Z,1004.17
2022-12-14T07:12:38.751Z,1004.15
2022-12-14T07:13:39.139Z,1004.15
2022-12-14T07:14:39.513Z,1004.19
2022-12-14T07:15:40.093Z,1004.14
2022-12-14T07:16:42.605Z,1004.13
2022-12-14T07:17:40.598Z,1004.12
2022-12-14T07:18:40.953Z,1004.12
2022-12-14T07:19:41.344Z,1004.11
2022-12-14T07:20:41.713Z,1004.09
2022-12-14T07:21:42.067Z,1004.09
2022-12-14T07:22:42.464Z,1004.09
2022-12-14T07:23:43.080Z,1004.07
2022-12-14T07:24:43.193Z,1004.05
2022-12-14T07:25:43.562Z,1004.05
2022-12-14T07:26:43.986Z,1004.05
2022-12-14T07:27:44.327Z,1004.09
2022-12-14T07:28:44.661Z,1004.08
2022-12-14T07:29:45.042Z,1004.06
2022-12-14T07:30:45.549Z,1004.06
2022-12-14T07:31:49.363Z,1004.05
2022-12-14T07:32:46.191Z,1004.02
2022-12-14T07:33:46.517Z,1004.04
2022-12-14T07:34:46.870Z,1004.00
2022-12-14T07:35:47.222Z,1004.02
2022-12-14T07:36:47.575Z,1004.04
2022-12-14T07:37:49.283Z,1004.03
2022-12-14T07:38:48.289Z,1004.03
2022-12-14T07:39:48.661Z,1004.02
2022-12-14T07:40:49.052Z,1004.04
2022-12-14T07:41:49.498Z,1004.05
2022-12-14T07:42:49.832Z,1003.99
2022-12-14T07:43:50.394Z,1004.01
2022-12-14T07:44:50.614Z,1004.05
2022-12-14T07:45:50.998Z,1004.04
2022-12-14T07:46:51.471Z,1004.08
2022-12-14T07:47:51.840Z,1004.08
2022-12-14T07:48:52.161Z,1004.08
2022-12-14T07:49:52.515Z,1004.09
2022-12-14T07:50:52.903Z,1004.08
2022-12-14T07:51:53.251Z,1004.09
2022-12-14T07:52:53.617Z,1004.09
2022-12-14T07:53:54.010Z,1004.10
2022-12-14T07:54:54.345Z,1004.04
2022-12-14T07:55:54.721Z,1004.01
2022-12-14T07:56:55.099Z,1004.06
2022-12-14T07:57:55.436Z,1004.03
2022-12-14T07:58:55.818Z,1004.02
2022-12-14T07:59:57.674Z,1004.01
2022-12-14T08:00:56.546Z,1003.94
2022-12-14T08:01:57.000Z,1003.96
2022-12-14T08:02:57.285Z,1003.98
2022-12-14T08:03:57.637Z,1003.92
2022-12-14T08:04:58.134Z,1003.89
2022-12-14T08:05:58.375Z,1003.91
2022-12-14T08:06:58.744Z,1003.89
2022-12-14T08:07:59.107Z,1003.88
2022-12-14T08:08:59.473Z,1003.91
2022-12-14T08:09:59.869Z,1003.85
2022-12-14T08:11:00.217Z,1003.90
2022-12-14T08:12:00.621Z,1003.95
2022-12-14T08:13:01.001Z,1003.93
2022-12-14T08:14:01.339Z,1003.93
2022-12-14T08:15:02.035Z,1003.91
2022-12-14T08:16:02.099Z,1003.92
2022-12-14T08:17:02.460Z,1003.89
2022-12-14T08:18:02.819Z,1003.92
2022-12-14T08:19:03.266Z,1003.88
2022-12-14T08:20:03.572Z,1003.89
2022-12-14T08:21:03.900Z,1003.88
2022-12-14T08:22:04.295Z,1003.88
2022-12-14T08:23:04.619Z,1003.83
2022-12-14T08:24:04.977Z,1003.83
2022-12-14T08:25:05.367Z,1003.86
2022-12-14T08:26:05.706Z,1003.85
2022-12-14T08:27:06.087Z,1003.81
2022-12-14T08:28:06.423Z,1003.80
2022-12-14T08:29:06.795Z,1003.79
2022-12-14T08:30:07.234Z,1003.83
2022-12-14T08:31:07.612Z,1003.81
2022-12-14T08:32:07.914Z,1003.81
2022-12-14T08:33:08.279Z,1003.77
2022-12-14T08:34:08.662Z,1003.74
2022-12-14T08:35:09.037Z,1003.74
2022-12-14T08:36:09.435Z,1003.73
2022-12-14T08:37:09.747Z,1003.74
2022-12-14T08:38:10.123Z,1003.73
2022-12-14T08:39:10.520Z,1003.78
2022-12-14T08:40:10.895Z,1003.73
2022-12-14T08:41:11.415Z,1003.74
2022-12-14T08:42:11.679Z,1003.73
2022-12-14T08:43:12.040Z,1003.77
2022-12-14T08:44:12.409Z,1003.73
2022-12-14T08:45:12.792Z,1003.75
2022-12-14T08:46:13.245Z,1003.75
2022-12-14T08:47:13.518Z,1003.69
2022-12-14T08:48:13.888Z,1003.71
2022-12-14T08:49:14.255Z,1003.73
2022-12-14T08:50:14.615Z,1003.74
2022-12-14T08:51:15.017Z,1003.75
2022-12-14T08:52:15.334Z,1003.71
2022-12-14T08:53:15.707Z,1003.74
2022-12-14T08:54:16.065Z,1003.75
2022-12-14T08:55:16.429Z,1003.73
2022-12-14T08:56:16.809Z,1003.68
2022-12-14T08:57:17.141Z,1003.67
2022-12-14T08:58:17.527Z,1003.68
2022-12-14T08:59:43.967Z,1003.68
2022-12-14T09:00:18.226Z,1003.64
2022-12-14T09:01:18.681Z,1003.70
2022-12-14T09:02:19.081Z,1003.69
2022-12-14T09:03:19.301Z,1003.66
2022-12-14T09:04:19.606Z,1003.67
2022-12-14T09:05:20.202Z,1003.61
2022-12-14T09:06:20.289Z,1003.60
2022-12-14T09:07:20.638Z,1003.62
2022-12-14T09:08:20.984Z,1003.67
2022-12-14T09:09:21.342Z,1003.62
2022-12-14T09:10:21.730Z,1003.67
2022-12-14T09:11:22.094Z,1003.61
2022-12-14T09:12:22.414Z,1003.62
2022-12-14T09:13:22.770Z,1003.62
2022-12-14T09:14:23.175Z,1003.59
2022-12-14T09:15:23.479Z,1003.60
2022-12-14T09:16:23.896Z,1003.57
2022-12-14T09:17:24.149Z,1003.61
2022-12-14T09:18:24.497Z,1003.59
2022-12-14T09:19:24.795Z,1003.59
2022-12-14T09:20:25.119Z,1003.56
2022-12-14T09:21:25.493Z,1003.57
2022-12-14T09:22:25.905Z,1003.63
2022-12-14T09:23:26.423Z,1003.61
2022-12-14T09:24:26.481Z,1003.62
2022-12-14T09:25:26.844Z,1003.61
2022-12-14T09:26:27.210Z,1003.61
2022-12-14T09:27:27.515Z,1003.59
2022-12-14T09:28:27.851Z,1003.63
2022-12-14T09:29:28.193Z,1003.61
2022-12-14T09:30:28.641Z,1003.65
2022-12-14T09:31:29.148Z,1003.65
2022-12-14T09:32:29.191Z,1003.69
2022-12-14T09:33:29.972Z,1003.67
2022-12-14T09:34:29.858Z,1003.70
2022-12-14T09:35:30.193Z,1003.67
2022-12-14T09:36:30.543Z,1003.74
2022-12-14T09:37:30.852Z,1003.67
2022-12-14T09:38:31.234Z,1003.68
2022-12-14T09:39:31.551Z,1003.66
2022-12-14T09:40:31.904Z,1003.65
2022-12-14T09:41:32.226Z,1003.63
2022-12-14T09:42:32.565Z,1003.60
2022-12-14T09:43:36.882Z,1003.63
2022-12-14T09:44:33.230Z,1003.66
2022-12-14T09:45:33.643Z,1003.62
2022-12-14T09:46:33.868Z,1003.61
2022-12-14T09:47:34.189Z,1003.57
2022-12-14T09:48:34.566Z,1003.57
2022-12-14T09:49:34.924Z,1003.55
2022-12-14T09:50:35.240Z,1003.55
2022-12-14T09:51:35.699Z,1003.55
2022-12-14T09:52:35.997Z,1003.50
2022-12-14T09:53:36.280Z,1003.51
2022-12-14T09:54:36.687Z,1003.49
2022-12-14T09:55:36.981Z,1003.50
2022-12-14T09:56:37.327Z,1003.49
2022-12-14T09:57:37.687Z,1003.49
2022-12-14T09:58:38.008Z,1003.50
2022-12-14T09:59:38.389Z,1003.51
2022-12-14T10:00:38.796Z,1003.44
2022-12-14T10:01:39.188Z,1003.47
2022-12-14T10:02:39.606Z,1003.46
2022-12-14T10:03:39.890Z,1003.47
2022-12-14T10:04:40.177Z,1003.42
2022-12-14T10:05:40.484Z,1003.41
2022-12-14T10:06:40.839Z,1003.38
2022-12-14T10:07:41.205Z,1003.37
2022-12-14T10:08:41.557Z,1003.34
2022-12-14T10:09:41.946Z,1003.31
2022-12-14T10:10:42.304Z,1003.34
2022-12-14T10:11:42.594Z,1003.31
2022-12-14T10:12:42.937Z,1003.28
2022-12-14T10:13:43.281Z,1003.26
2022-12-14T10:14:44.584Z,1003.24
2022-12-14T10:15:44.132Z,1003.24
2022-12-14T10:16:49.966Z,1003.22
2022-12-14T10:17:44.700Z,1003.23
2022-12-14T10:19:01.952Z,1003.20
2022-12-14T10:19:45.375Z,1003.22
2022-12-14T10:20:45.906Z,1003.18
2022-12-14T10:21:46.045Z,1003.19
2022-12-14T10:22:46.381Z,1003.18
2022-12-14T10:23:46.719Z,1003.18
2022-12-14T10:24:47.053Z,1003.17
2022-12-14T10:25:47.442Z,1003.14
2022-12-14T10:26:47.749Z,1003.17
2022-12-14T10:28:09.730Z,1003.16
2022-12-14T10:28:48.512Z,1003.20
2022-12-14T10:29:48.751Z,1003.11
2022-12-14T10:30:49.094Z,1003.16
2022-12-14T10:31:49.537Z,1003.13
2022-12-14T10:32:49.777Z,1003.14
2022-12-14T10:33:50.120Z,1003.14
2022-12-14T10:34:50.458Z,1003.15
2022-12-14T10:35:50.807Z,1003.14
2022-12-14T10:36:51.191Z,1003.14
2022-12-14T10:37:51.498Z,1003.12
2022-12-14T10:38:51.845Z,1003.13
2022-12-14T10:39:52.199Z,1003.12
2022-12-14T10:40:52.551Z,1003.11
2022-12-14T10:41:52.924Z,1003.10
2022-12-14T10:42:53.403Z,1003.12
2022-12-14T10:43:53.606Z,1003.08
2022-12-14T10:45:04.373Z,1003.08
2022-12-14T10:45:54.361Z,1003.00
2022-12-14T10:46:54.865Z,1003.03
2022-12-14T10:47:55.016Z,1002.99
2022-12-14T10:48:55.384Z,1003.01
2022-12-14T10:49:55.732Z,1003.00
2022-12-14T10:50:56.078Z,1002.96
2022-12-14T10:51:56.564Z,1002.97
2022-12-14T10:52:56.770Z,1002.99
2022-12-14T10:53:57.121Z,1002.98
2022-12-14T10:54:57.472Z,1002.93
2022-12-14T10:55:57.873Z,1002.93
2022-12-14T10:56:58.418Z,1002.91
2022-12-14T10:57:58.560Z,1002.91
2022-12-14T10:58:58.928Z,1002.93
2022-12-14T11:00:09.471Z,1002.96
2022-12-14T11:00:59.787Z,1002.96
2022-12-14T11:02:00.382Z,1002.98
2022-12-14T11:03:00.452Z,1002.93
2022-12-14T11:04:00.709Z,1002.91
2022-12-14T11:05:01.050Z,1002.92
2022-12-14T11:06:01.407Z,1002.90
2022-12-14T11:07:01.805Z,1002.94
2022-12-14T11:08:02.165Z,1002.92
2022-12-14T11:09:02.476Z,1002.91
2022-12-14T11:10:02.837Z,1002.92
2022-12-14T11:11:03.216Z,1002.90
2022-12-14T11:12:03.624Z,1002.92
2022-12-14T11:13:03.878Z,1002.90
2022-12-14T11:14:04.264Z,1002.90
2022-12-14T11:15:04.573Z,1002.91
2022-12-14T11:16:04.921Z,1002.87
2022-12-14T11:17:05.424Z,1002.87
2022-12-14T11:18:05.828Z,1002.83
2022-12-14T11:19:06.022Z,1002.85
2022-12-14T11:20:06.356Z,1002.80
2022-12-14T11:21:06.705Z,1002.74
2022-12-14T11:22:07.055Z,1002.75
2022-12-14T11:23:07.452Z,1002.74
2022-12-14T11:24:07.791Z,1002.76
2022-12-14T11:25:08.160Z,1002.76
2022-12-14T11:26:08.529Z,1002.75
2022-12-14T11:27:08.884Z,1002.72
2022-12-14T11:28:09.294Z,1002.75
2022-12-14T11:29:09.613Z,1002.70
2022-12-14T11:30:09.994Z,1002.69
2022-12-14T11:31:10.466Z,1002.75
2022-12-14T11:32:10.851Z,1002.70
2022-12-14T11:33:11.117Z,1002.75
2022-12-14T11:34:11.438Z,1002.72
2022-12-14T11:35:11.797Z,1002.75
2022-12-14T11:36:12.148Z,1002.77
2022-12-14T11:37:12.497Z,1002.74
2022-12-14T11:38:12.888Z,1002.74
2022-12-14T11:39:13.193Z,1002.73
2022-12-14T11:40:13.644Z,1002.71
2022-12-14T11:41:13.877Z,1002.71
2022-12-14T11:42:14.223Z,1002.73
2022-12-14T11:43:14.592Z,1002.72
2022-12-14T11:44:14.955Z,1002.71
2022-12-14T11:45:15.268Z,1002.72
2022-12-14T11:46:15.643Z,1002.66
2022-12-14T11:47:15.978Z,1002.69
2022-12-14T11:48:16.347Z,1002.69
2022-12-14T11:49:16.717Z,1002.64
2022-12-14T11:50:17.040Z,1002.70
2022-12-14T11:51:17.390Z,1002.71
2022-12-14T11:52:17.750Z,1002.68
2022-12-14T11:53:18.103Z,1002.68
2022-12-14T11:54:18.485Z,1002.70
2022-12-14T11:55:24.731Z,1002.65
2022-12-14T11:56:19.144Z,1002.69
2022-12-14T11:57:19.502Z,1002.66
2022-12-14T11:58:19.856Z,1002.69
2022-12-14T11:59:20.199Z,1002.69
2022-12-14T12:00:20.567Z,1002.71
2022-12-14T12:01:20.961Z,1002.69
2022-12-14T12:02:21.319Z,1002.71
2022-12-14T12:03:21.711Z,1002.71
2022-12-14T12:04:21.923Z,1002.72
2022-12-14T12:05:22.285Z,1002.72
2022-12-14T12:06:22.680Z,1002.68
2022-12-14T12:07:22.979Z,1002.69
2022-12-14T12:08:23.329Z,1002.65
2022-12-14T12:09:23.686Z,1002.65